sensor_id;sensor_type;location;lat;lon;timestamp;pressure;altitude;pressure_sealevel;temperature;humidity
72798;BME280;61084;55.816;37.036;2022-10-24T00:02:25;98705.59;;;7.68;74.50
72798;BME280;61084;55.816;37.036;2022-10-24T00:04:51;98705.59;;;7.68;74.38
72798;BME280;61084;55.816;37.036;2022-10-24T00:07:16;98713.59;;;7.65;74.17
72798;BME280;61084;55.816;37.036;2022-10-24T00:09:42;98709.38;;;7.63;73.82
72798;BME280;61084;55.816;37.036;2022-10-24T00:12:08;98707.84;;;7.58;73.85
72798;BME280;61084;55.816;37.036;2022-10-24T00:14:35;98705.47;;;7.54;73.94
72798;BME280;61084;55.816;37.036;2022-10-24T00:17:01;98713.47;;;7.51;73.71
72798;BME280;61084;55.816;37.036;2022-10-24T00:19:26;98706.72;;;7.47;73.61
72798;BME280;61084;55.816;37.036;2022-10-24T00:21:52;98706.03;;;7.43;73.71
72798;BME280;61084;55.816;37.036;2022-10-24T00:24:18;98707.88;;;7.41;73.59
72798;BME280;61084;55.816;37.036;2022-10-24T00:26:44;98706.28;;;7.39;73.74
72798;BME280;61084;55.816;37.036;2022-10-24T00:29:10;98711.50;;;7.39;73.87
72798;BME280;61084;55.816;37.036;2022-10-24T00:31:36;98704.44;;;7.41;73.63
72798;BME280;61084;55.816;37.036;2022-10-24T00:34:03;98702.66;;;7.41;73.34
72798;BME280;61084;55.816;37.036;2022-10-24T00:36:29;98713.16;;;7.40;73.21
72798;BME280;61084;55.816;37.036;2022-10-24T00:38:55;98710.72;;;7.37;73.66
72798;BME280;61084;55.816;37.036;2022-10-24T00:41:27;98709.97;;;7.35;73.51
72798;BME280;61084;55.816;37.036;2022-10-24T00:46:44;98706.19;;;7.23;73.56
72798;BME280;61084;55.816;37.036;2022-10-24T00:49:16;98709.56;;;7.25;73.37
72798;BME280;61084;55.816;37.036;2022-10-24T00:51:43;98694.81;;;7.24;73.79
72798;BME280;61084;55.816;37.036;2022-10-24T00:54:12;98698.13;;;7.28;73.75
72798;BME280;61084;55.816;37.036;2022-10-24T00:56:45;98700.91;;;7.25;73.51
72798;BME280;61084;55.816;37.036;2022-10-24T00:59:15;98696.63;;;7.24;73.72
72798;BME280;61084;55.816;37.036;2022-10-24T01:01:43;98702.41;;;7.29;73.29
72798;BME280;61084;55.816;37.036;2022-10-24T01:04:13;98699.00;;;7.28;73.81
72798;BME280;61084;55.816;37.036;2022-10-24T01:06:45;98707.72;;;7.27;73.46
72798;BME280;61084;55.816;37.036;2022-10-24T01:14:43;98717.31;;;7.27;73.68
72798;BME280;61084;55.816;37.036;2022-10-24T01:17:51;98710.44;;;7.26;73.20
72798;BME280;61084;55.816;37.036;2022-10-24T01:28:21;98712.97;;;7.10;73.62
72798;BME280;61084;55.816;37.036;2022-10-24T01:30:57;98715.56;;;7.10;73.84
72798;BME280;61084;55.816;37.036;2022-10-24T01:33:35;98711.03;;;7.14;73.91
72798;BME280;61084;55.816;37.036;2022-10-24T01:36:20;98715.34;;;7.15;73.74
72798;BME280;61084;55.816;37.036;2022-10-24T01:38:59;98714.50;;;7.14;74.28
72798;BME280;61084;55.816;37.036;2022-10-24T01:41:27;98715.34;;;7.15;74.14
72798;BME280;61084;55.816;37.036;2022-10-24T01:44:09;98712.66;;;7.16;73.97
72798;BME280;61084;55.816;37.036;2022-10-24T01:46:44;98707.81;;;7.09;73.91
72798;BME280;61084;55.816;37.036;2022-10-24T01:49:18;98712.19;;;7.08;73.65
72798;BME280;61084;55.816;37.036;2022-10-24T01:51:49;98709.50;;;7.10;73.82
72798;BME280;61084;55.816;37.036;2022-10-24T01:54:16;98709.59;;;7.08;73.89
72798;BME280;61084;55.816;37.036;2022-10-24T01:56:42;98704.28;;;7.10;73.88
72798;BME280;61084;55.816;37.036;2022-10-24T02:02:27;98717.72;;;7.02;74.05
72798;BME280;61084;55.816;37.036;2022-10-24T02:05:01;98716.66;;;7.06;74.13
72798;BME280;61084;55.816;37.036;2022-10-24T02:07:31;98715.94;;;7.03;74.29
72798;BME280;61084;55.816;37.036;2022-10-24T02:10:11;98716.25;;;6.97;74.02
72798;BME280;61084;55.816;37.036;2022-10-24T02:12:43;98725.78;;;6.98;74.20
72798;BME280;61084;55.816;37.036;2022-10-24T02:15:23;98720.78;;;6.93;73.95
72798;BME280;61084;55.816;37.036;2022-10-24T02:17:52;98720.69;;;6.95;74.22
72798;BME280;61084;55.816;37.036;2022-10-24T02:20:27;98722.53;;;6.93;74.42
72798;BME280;61084;55.816;37.036;2022-10-24T02:23:02;98725.06;;;6.94;74.31
72798;BME280;61084;55.816;37.036;2022-10-24T02:25:33;98719.47;;;6.84;74.22
72798;BME280;61084;55.816;37.036;2022-10-24T02:28:07;98727.22;;;6.86;74.31
72798;BME280;61084;55.816;37.036;2022-10-24T02:30:38;98731.75;;;6.82;74.24
72798;BME280;61084;55.816;37.036;2022-10-24T02:33:07;98733.19;;;6.88;74.27
72798;BME280;61084;55.816;37.036;2022-10-24T02:35:35;98736.78;;;6.85;74.67
72798;BME280;61084;55.816;37.036;2022-10-24T02:38:11;98738.50;;;6.87;74.33
72798;BME280;61084;55.816;37.036;2022-10-24T02:40:39;98736.78;;;6.85;74.57
72798;BME280;61084;55.816;37.036;2022-10-24T02:43:06;98746.31;;;6.87;74.52
72798;BME280;61084;55.816;37.036;2022-10-24T02:45:34;98743.63;;;6.88;74.53
72798;BME280;61084;55.816;37.036;2022-10-24T02:48:04;98732.50;;;6.84;74.42
72798;BME280;61084;55.816;37.036;2022-10-24T02:50:31;98740.34;;;6.84;74.80
72798;BME280;61084;55.816;37.036;2022-10-24T02:52:57;98743.84;;;6.83;74.63
72798;BME280;61084;55.816;37.036;2022-10-24T02:55:26;98746.31;;;6.87;74.40
72798;BME280;61084;55.816;37.036;2022-10-24T02:57:52;98749.16;;;6.82;74.43
72798;BME280;61084;55.816;37.036;2022-10-24T03:00:18;98758.72;;;6.81;74.48
72798;BME280;61084;55.816;37.036;2022-10-24T03:02:44;98756.13;;;6.81;74.70
72798;BME280;61084;55.816;37.036;2022-10-24T03:05:10;98755.97;;;6.84;74.96
72798;BME280;61084;55.816;37.036;2022-10-24T03:07:35;98753.44;;;6.83;74.58
72798;BME280;61084;55.816;37.036;2022-10-24T03:10:01;98756.28;;;6.78;74.44
72798;BME280;61084;55.816;37.036;2022-10-24T03:12:29;98755.44;;;6.78;74.96
72798;BME280;61084;55.816;37.036;2022-10-24T03:14:55;98768.47;;;6.78;75.13
72798;BME280;61084;55.816;37.036;2022-10-24T03:17:20;98768.31;;;6.81;75.44
72798;BME280;61084;55.816;37.036;2022-10-24T03:19:47;98764.94;;;6.79;74.97
72798;BME280;61084;55.816;37.036;2022-10-24T03:22:13;98772.75;;;6.79;74.88
72798;BME280;61084;55.816;37.036;2022-10-24T03:24:39;98773.59;;;6.79;75.17
72798;BME280;61084;55.816;37.036;2022-10-24T03:27:05;98771.00;;;6.79;74.38
72798;BME280;61084;55.816;37.036;2022-10-24T03:29:31;98777.28;;;6.75;75.29
72798;BME280;61084;55.816;37.036;2022-10-24T03:31:56;98773.75;;;6.76;74.95
72798;BME280;61084;55.816;37.036;2022-10-24T03:34:22;98783.47;;;6.73;75.32
72798;BME280;61084;55.816;37.036;2022-10-24T03:36:48;98776.50;;;6.73;75.27
72798;BME280;61084;55.816;37.036;2022-10-24T03:39:14;98779.97;;;6.74;75.31
72798;BME280;61084;55.816;37.036;2022-10-24T03:41:40;98775.56;;;6.74;76.07
72798;BME280;61084;55.816;37.036;2022-10-24T03:44:05;98780.03;;;6.72;75.24
72798;BME280;61084;55.816;37.036;2022-10-24T03:46:31;98778.28;;;6.73;75.64
72798;BME280;61084;55.816;37.036;2022-10-24T03:48:57;98784.41;;;6.72;76.01
72798;BME280;61084;55.816;37.036;2022-10-24T03:51:23;98784.41;;;6.72;75.07
72798;BME280;61084;55.816;37.036;2022-10-24T03:53:49;98781.66;;;6.75;75.08
72798;BME280;61084;55.816;37.036;2022-10-24T03:56:14;98782.59;;;6.74;75.51
72798;BME280;61084;55.816;37.036;2022-10-24T03:58:40;98787.59;;;6.78;75.44
72798;BME280;61084;55.816;37.036;2022-10-24T04:01:06;98801.59;;;6.76;75.84
72798;BME280;61084;55.816;37.036;2022-10-24T04:03:34;98803.22;;;6.78;76.06
72798;BME280;61084;55.816;37.036;2022-10-24T04:06:00;98804.78;;;6.82;75.29
72798;BME280;61084;55.816;37.036;2022-10-24T04:08:26;98811.63;;;6.85;75.24
72798;BME280;61084;55.816;37.036;2022-10-24T04:10:51;98796.88;;;6.84;75.13
72798;BME280;61084;55.816;37.036;2022-10-24T04:13:17;98794.38;;;6.81;75.38
72798;BME280;61084;55.816;37.036;2022-10-24T04:15:43;98808.28;;;6.81;75.68
72798;BME280;61084;55.816;37.036;2022-10-24T04:18:09;98810.00;;;6.82;75.38
72798;BME280;61084;55.816;37.036;2022-10-24T04:20:34;98809.22;;;6.80;75.52
72798;BME280;61084;55.816;37.036;2022-10-24T04:23:00;98820.41;;;6.82;75.45
72798;BME280;61084;55.816;37.036;2022-10-24T04:25:26;98817.88;;;6.81;75.46
72798;BME280;61084;55.816;37.036;2022-10-24T04:27:52;98816.97;;;6.82;75.94
72798;BME280;61084;55.816;37.036;2022-10-24T04:30:18;98825.56;;;6.84;76.20
72798;BME280;61084;55.816;37.036;2022-10-24T04:32:44;98830.78;;;6.84;75.74
72798;BME280;61084;55.816;37.036;2022-10-24T04:35:10;98829.22;;;6.80;75.59
72798;BME280;61084;55.816;37.036;2022-10-24T04:37:35;98837.06;;;6.80;75.67
72798;BME280;61084;55.816;37.036;2022-10-24T04:40:02;98834.22;;;6.84;75.54
72798;BME280;61084;55.816;37.036;2022-10-24T04:42:29;98842.81;;;6.87;75.43
72798;BME280;61084;55.816;37.036;2022-10-24T04:44:55;98835.13;;;6.83;75.62
72798;BME280;61084;55.816;37.036;2022-10-24T04:47:21;98853.41;;;6.83;75.51
72798;BME280;61084;55.816;37.036;2022-10-24T04:49:46;98850.88;;;6.82;75.76
72798;BME280;61084;55.816;37.036;2022-10-24T04:52:12;98849.94;;;6.83;75.74
72798;BME280;61084;55.816;37.036;2022-10-24T04:54:38;98864.69;;;6.84;75.43
72798;BME280;61084;55.816;37.036;2022-10-24T04:57:04;98866.44;;;6.83;75.76
72798;BME280;61084;55.816;37.036;2022-10-24T04:59:30;98869.97;;;6.82;75.42
72798;BME280;61084;55.816;37.036;2022-10-24T05:01:55;98867.50;;;6.79;75.86
72798;BME280;61084;55.816;37.036;2022-10-24T05:04:21;98867.38;;;6.82;75.38
72798;BME280;61084;55.816;37.036;2022-10-24T05:06:47;98867.22;;;6.85;75.35
72798;BME280;61084;55.816;37.036;2022-10-24T05:09:13;98873.97;;;6.90;75.56
72798;BME280;61084;55.816;37.036;2022-10-24T05:11:39;98879.06;;;6.93;75.69
72798;BME280;61084;55.816;37.036;2022-10-24T05:14:05;98872.00;;;6.95;75.82
72798;BME280;61084;55.816;37.036;2022-10-24T05:16:31;98876.38;;;6.94;75.38
72798;BME280;61084;55.816;37.036;2022-10-24T05:18:57;98878.94;;;6.96;75.70
72798;BME280;61084;55.816;37.036;2022-10-24T05:21:23;98878.00;;;6.97;75.79
72798;BME280;61084;55.816;37.036;2022-10-24T05:23:48;98883.13;;;6.98;75.28
72798;BME280;61084;55.816;37.036;2022-10-24T05:26:14;98877.84;;;7.00;75.40
72798;BME280;61084;55.816;37.036;2022-10-24T05:28:40;98883.84;;;7.02;75.39
72798;BME280;61084;55.816;37.036;2022-10-24T05:31:06;98888.91;;;7.05;75.10
72798;BME280;61084;55.816;37.036;2022-10-24T05:33:31;98897.47;;;7.08;75.49
72798;BME280;61084;55.816;37.036;2022-10-24T05:35:57;98896.38;;;7.12;74.88
72798;BME280;61084;55.816;37.036;2022-10-24T05:38:23;98901.75;;;7.09;75.28
72798;BME280;61084;55.816;37.036;2022-10-24T05:40:49;98904.31;;;7.11;75.03
72798;BME280;61084;55.816;37.036;2022-10-24T05:43:16;98911.41;;;7.07;74.82
72798;BME280;61084;55.816;37.036;2022-10-24T05:45:43;98914.00;;;7.07;75.18
72798;BME280;61084;55.816;37.036;2022-10-24T05:48:09;98916.69;;;7.06;75.07
72798;BME280;61084;55.816;37.036;2022-10-24T05:50:35;98913.97;;;7.09;75.16
72798;BME280;61084;55.816;37.036;2022-10-24T05:53:01;98918.41;;;7.07;74.79
72798;BME280;61084;55.816;37.036;2022-10-24T05:55:27;98919.22;;;7.07;74.84
72798;BME280;61084;55.816;37.036;2022-10-24T05:57:53;98923.63;;;7.07;74.63
72798;BME280;61084;55.816;37.036;2022-10-24T06:00:19;98927.00;;;7.09;74.91
72798;BME280;61084;55.816;37.036;2022-10-24T06:02:45;98922.47;;;7.12;75.05
72798;BME280;61084;55.816;37.036;2022-10-24T06:05:12;98924.25;;;7.12;75.08
72798;BME280;61084;55.816;37.036;2022-10-24T06:07:38;98925.56;;;7.20;75.26
72798;BME280;61084;55.816;37.036;2022-10-24T06:10:07;98932.41;;;7.23;74.87
72798;BME280;61084;55.816;37.036;2022-10-24T06:12:33;98927.06;;;7.26;74.50
72798;BME280;61084;55.816;37.036;2022-10-24T06:15:02;98930.16;;;7.34;74.34
72798;BME280;61084;55.816;37.036;2022-10-24T06:17:29;98934.25;;;7.39;74.47
72798;BME280;61084;55.816;37.036;2022-10-24T06:19:55;98928.19;;;7.39;74.28
72798;BME280;61084;55.816;37.036;2022-10-24T06:22:21;98937.63;;;7.41;74.63
72798;BME280;61084;55.816;37.036;2022-10-24T06:24:52;98937.47;;;7.44;74.50
72798;BME280;61084;55.816;37.036;2022-10-24T06:27:18;98933.97;;;7.45;74.37
72798;BME280;61084;55.816;37.036;2022-10-24T06:29:44;98934.78;;;7.46;73.99
72798;BME280;61084;55.816;37.036;2022-10-24T06:32:10;98953.91;;;7.46;73.88
72798;BME280;61084;55.816;37.036;2022-10-24T06:34:36;98950.53;;;7.44;73.99
72798;BME280;61084;55.816;37.036;2022-10-24T06:37:02;98941.91;;;7.42;74.13
72798;BME280;61084;55.816;37.036;2022-10-24T06:39:28;98951.38;;;7.45;73.83
72798;BME280;61084;55.816;37.036;2022-10-24T06:41:54;98958.34;;;7.44;73.76
72798;BME280;61084;55.816;37.036;2022-10-24T06:44:19;98949.66;;;7.44;74.09
72798;BME280;61084;55.816;37.036;2022-10-24T06:46:45;98953.06;;;7.46;73.79
72798;BME280;61084;55.816;37.036;2022-10-24T06:49:12;98956.47;;;7.48;73.81
72798;BME280;61084;55.816;37.036;2022-10-24T06:51:38;98951.06;;;7.51;73.87
72798;BME280;61084;55.816;37.036;2022-10-24T06:54:04;98951.84;;;7.53;73.92
72798;BME280;61084;55.816;37.036;2022-10-24T06:56:30;98964.06;;;7.52;73.95
72798;BME280;61084;55.816;37.036;2022-10-24T06:58:56;98967.69;;;7.50;73.52
72798;BME280;61084;55.816;37.036;2022-10-24T07:01:23;98958.06;;;7.50;73.70
72798;BME280;61084;55.816;37.036;2022-10-24T07:03:49;98963.78;;;7.58;73.90
72798;BME280;61084;55.816;37.036;2022-10-24T07:06:22;98961.78;;;7.63;73.51
72798;BME280;61084;55.816;37.036;2022-10-24T07:08:50;98973.06;;;7.64;73.67
72798;BME280;61084;55.816;37.036;2022-10-24T07:11:16;98973.00;;;7.66;73.26
72798;BME280;61084;55.816;37.036;2022-10-24T07:13:42;98978.84;;;7.71;73.37
72798;BME280;61084;55.816;37.036;2022-10-24T07:16:08;98962.19;;;7.73;73.56
72798;BME280;61084;55.816;37.036;2022-10-24T07:18:34;98974.09;;;7.79;73.45
72798;BME280;61084;55.816;37.036;2022-10-24T07:21:07;98974.09;;;7.79;73.36
72798;BME280;61084;55.816;37.036;2022-10-24T07:23:34;98971.25;;;7.83;73.27
72798;BME280;61084;55.816;37.036;2022-10-24T07:26:07;98972.03;;;7.85;73.36
72798;BME280;61084;55.816;37.036;2022-10-24T07:28:34;98973.88;;;7.83;73.23
72798;BME280;61084;55.816;37.036;2022-10-24T07:31:00;98969.81;;;7.78;72.85
72798;BME280;61084;55.816;37.036;2022-10-24T07:33:26;98974.25;;;7.76;73.08
72798;BME280;61084;55.816;37.036;2022-10-24T07:35:51;98988.19;;;7.76;72.98
72798;BME280;61084;55.816;37.036;2022-10-24T07:38:17;98986.25;;;7.80;72.87
72798;BME280;61084;55.816;37.036;2022-10-24T07:40:43;98986.38;;;7.77;72.63
72798;BME280;61084;55.816;37.036;2022-10-24T07:43:09;98984.63;;;7.77;72.90
72798;BME280;61084;55.816;37.036;2022-10-24T07:45:36;98988.94;;;7.78;72.96
72798;BME280;61084;55.816;37.036;2022-10-24T07:48:02;98994.94;;;7.80;73.14
72798;BME280;61084;55.816;37.036;2022-10-24T07:50:34;98999.00;;;7.86;73.04
72798;BME280;61084;55.816;37.036;2022-10-24T07:53:05;99003.25;;;7.88;72.71
72798;BME280;61084;55.816;37.036;2022-10-24T07:55:31;98992.72;;;7.90;72.21
72798;BME280;61084;55.816;37.036;2022-10-24T07:57:57;99006.53;;;7.92;72.30
72798;BME280;61084;55.816;37.036;2022-10-24T08:00:22;99017.00;;;7.92;72.37
72798;BME280;61084;55.816;37.036;2022-10-24T08:02:49;99018.03;;;7.89;72.28
72798;BME280;61084;55.816;37.036;2022-10-24T08:05:15;99021.41;;;7.91;72.03
72798;BME280;61084;55.816;37.036;2022-10-24T08:07:41;99016.09;;;7.93;72.02
72798;BME280;61084;55.816;37.036;2022-10-24T08:10:10;99014.56;;;7.89;71.85
72798;BME280;61084;55.816;37.036;2022-10-24T08:12:37;99021.19;;;7.96;71.81
72798;BME280;61084;55.816;37.036;2022-10-24T08:15:03;99010.34;;;8.03;71.56
72798;BME280;61084;55.816;37.036;2022-10-24T08:17:29;99014.81;;;8.18;71.62
72798;BME280;61084;55.816;37.036;2022-10-24T08:19:55;99014.72;;;8.20;70.49
72798;BME280;61084;55.816;37.036;2022-10-24T08:22:21;99018.16;;;8.22;71.07
72798;BME280;61084;55.816;37.036;2022-10-24T08:24:47;99025.72;;;8.28;71.73
72798;BME280;61084;55.816;37.036;2022-10-24T08:27:12;99028.25;;;8.29;70.82
72798;BME280;61084;55.816;37.036;2022-10-24T08:29:38;99032.56;;;8.30;70.66
72798;BME280;61084;55.816;37.036;2022-10-24T08:32:04;99027.16;;;8.33;70.77
72798;BME280;61084;55.816;37.036;2022-10-24T08:34:32;99033.56;;;8.28;69.36
72798;BME280;61084;55.816;37.036;2022-10-24T08:36:58;99043.25;;;8.24;69.78
72798;BME280;61084;55.816;37.036;2022-10-24T08:39:24;99051.19;;;8.23;68.93
72798;BME280;61084;55.816;37.036;2022-10-24T08:41:57;99049.34;;;8.25;70.04
72798;BME280;61084;55.816;37.036;2022-10-24T08:44:27;99045.06;;;8.24;69.00
72798;BME280;61084;55.816;37.036;2022-10-24T08:49:42;99042.16;;;8.30;69.38
72798;BME280;61084;55.816;37.036;2022-10-24T08:54:46;99048.63;;;8.57;68.85
72798;BME280;61084;55.816;37.036;2022-10-24T08:57:21;99053.63;;;8.62;69.47
72798;BME280;61084;55.816;37.036;2022-10-24T08:59:51;99052.63;;;8.64;68.12
72798;BME280;61084;55.816;37.036;2022-10-24T09:02:24;99064.03;;;8.63;68.03
72798;BME280;61084;55.816;37.036;2022-10-24T09:04:57;99069.50;;;8.59;69.25
72798;BME280;61084;55.816;37.036;2022-10-24T09:07:24;99072.34;;;8.54;69.16
72798;BME280;61084;55.816;37.036;2022-10-24T09:10:18;99078.00;;;8.45;68.42
72798;BME280;61084;55.816;37.036;2022-10-24T09:12:44;99080.84;;;8.41;69.13
72798;BME280;61084;55.816;37.036;2022-10-24T09:15:16;99076.63;;;8.38;69.47
72798;BME280;61084;55.816;37.036;2022-10-24T09:17:46;99081.94;;;8.37;68.44
72798;BME280;61084;55.816;37.036;2022-10-24T09:20:27;99081.84;;;8.38;68.59
72798;BME280;61084;55.816;37.036;2022-10-24T09:22:56;99082.94;;;8.34;67.77
72798;BME280;61084;55.816;37.036;2022-10-24T09:25:29;99084.69;;;8.33;67.77
72798;BME280;61084;55.816;37.036;2022-10-24T09:27:57;99087.06;;;8.38;67.15
72798;BME280;61084;55.816;37.036;2022-10-24T09:30:26;99091.44;;;8.38;67.38
72798;BME280;61084;55.816;37.036;2022-10-24T09:32:55;99093.78;;;8.44;67.93
72798;BME280;61084;55.816;37.036;2022-10-24T09:47:44;99095.88;;;8.88;66.74
72798;BME280;61084;55.816;37.036;2022-10-24T09:50:20;99092.94;;;8.94;66.22
72798;BME280;61084;55.816;37.036;2022-10-24T09:52:52;99105.69;;;9.00;66.27
72798;BME280;61084;55.816;37.036;2022-10-24T09:55:23;99096.31;;;8.96;65.89
72798;BME280;61084;55.816;37.036;2022-10-24T09:57:54;99095.72;;;8.91;61.22
72798;BME280;61084;55.816;37.036;2022-10-24T10:00:28;99101.88;;;8.90;63.31
72798;BME280;61084;55.816;37.036;2022-10-24T10:03:05;99101.97;;;8.89;60.99
72798;BME280;61084;55.816;37.036;2022-10-24T10:05:55;99103.81;;;8.87;63.87
72798;BME280;61084;55.816;37.036;2022-10-24T10:08:24;99111.19;;;8.96;64.34
72798;BME280;61084;55.816;37.036;2022-10-24T10:11:25;99107.53;;;8.98;63.21
72798;BME280;61084;55.816;37.036;2022-10-24T10:13:52;99109.13;;;9.18;64.07
72798;BME280;61084;55.816;37.036;2022-10-24T10:16:33;99102.03;;;9.37;63.21
72798;BME280;61084;55.816;37.036;2022-10-24T10:24:38;99112.81;;;9.31;60.93
72798;BME280;61084;55.816;37.036;2022-10-24T10:27:30;99115.53;;;9.30;58.07
72798;BME280;61084;55.816;37.036;2022-10-24T10:35:40;99130.81;;;9.04;59.89
72798;BME280;61084;55.816;37.036;2022-10-24T10:49:39;99130.84;;;9.37;57.50
72798;BME280;61084;55.816;37.036;2022-10-24T10:52:12;99134.19;;;9.56;60.09
72798;BME280;61084;55.816;37.036;2022-10-24T10:57:38;99136.31;;;9.81;58.53
72798;BME280;61084;55.816;37.036;2022-10-24T11:02:49;99141.56;;;9.81;57.83
72798;BME280;61084;55.816;37.036;2022-10-24T11:11:06;99148.03;;;9.91;54.31
72798;BME280;61084;55.816;37.036;2022-10-24T11:13:37;99147.84;;;9.94;58.25
72798;BME280;61084;55.816;37.036;2022-10-24T11:16:08;99145.91;;;9.98;53.95
72798;BME280;61084;55.816;37.036;2022-10-24T11:18:39;99146.44;;;10.04;58.79
72798;BME280;61084;55.816;37.036;2022-10-24T11:21:12;99136.84;;;10.03;54.71
72798;BME280;61084;55.816;37.036;2022-10-24T11:23:52;99143.88;;;10.03;52.90
72798;BME280;61084;55.816;37.036;2022-10-24T11:32:01;99150.66;;;10.38;53.53
72798;BME280;61084;55.816;37.036;2022-10-24T11:34:41;99157.00;;;10.49;54.04
72798;BME280;61084;55.816;37.036;2022-10-24T11:37:18;99150.81;;;10.50;52.10
72798;BME280;61084;55.816;37.036;2022-10-24T11:39:58;99160.25;;;10.39;45.79
72798;BME280;61084;55.816;37.036;2022-10-24T11:45:32;99154.25;;;10.37;52.32
72798;BME280;61084;55.816;37.036;2022-10-24T11:48:42;99159.75;;;10.32;50.57
72798;BME280;61084;55.816;37.036;2022-10-24T11:53:57;99160.00;;;10.28;54.90
72798;BME280;61084;55.816;37.036;2022-10-24T11:58:58;99167.25;;;10.23;53.87
72798;BME280;61084;55.816;37.036;2022-10-24T12:10:40;99175.47;;;10.17;53.75
72798;BME280;61084;55.816;37.036;2022-10-24T12:16:23;99180.97;;;10.43;54.96
72798;BME280;61084;55.816;37.036;2022-10-24T12:19:02;99185.78;;;10.51;53.34
72798;BME280;61084;55.816;37.036;2022-10-24T12:21:40;99191.78;;;10.53;54.84
72798;BME280;61084;55.816;37.036;2022-10-24T12:26:58;99189.41;;;10.64;55.20
72798;BME280;61084;55.816;37.036;2022-10-24T12:29:25;99204.56;;;10.75;55.54
72798;BME280;61084;55.816;37.036;2022-10-24T12:31:52;99205.06;;;10.81;54.34
72798;BME280;61084;55.816;37.036;2022-10-24T12:39:41;99216.50;;;10.49;51.52
72798;BME280;61084;55.816;37.036;2022-10-24T12:58:18;99231.97;;;9.74;54.02
72798;BME280;61084;55.816;37.036;2022-10-24T13:01:21;99232.34;;;9.66;50.86
72798;BME280;61084;55.816;37.036;2022-10-24T13:10:08;99240.00;;;9.37;52.23
72798;BME280;61084;55.816;37.036;2022-10-24T13:17:59;99244.75;;;9.11;53.43
72798;BME280;61084;55.816;37.036;2022-10-24T13:20:35;99247.00;;;9.02;53.64
72798;BME280;61084;55.816;37.036;2022-10-24T13:23:29;99258.22;;;8.87;53.35
72798;BME280;61084;55.816;37.036;2022-10-24T13:25:58;99258.75;;;8.76;52.22
72798;BME280;61084;55.816;37.036;2022-10-24T13:36:27;99263.84;;;8.61;50.06
72798;BME280;61084;55.816;37.036;2022-10-24T13:38:57;99262.66;;;8.49;52.47
72798;BME280;61084;55.816;37.036;2022-10-24T13:41:35;99265.56;;;8.43;52.89
72798;BME280;61084;55.816;37.036;2022-10-24T13:44:06;99268.59;;;8.34;52.08
72798;BME280;61084;55.816;37.036;2022-10-24T13:46:41;99267.25;;;8.25;53.25
72798;BME280;61084;55.816;37.036;2022-10-24T13:49:16;99269.19;;;8.20;52.74
72798;BME280;61084;55.816;37.036;2022-10-24T13:51:46;99276.25;;;8.18;53.40
72798;BME280;61084;55.816;37.036;2022-10-24T13:54:26;99276.44;;;8.14;53.62
72798;BME280;61084;55.816;37.036;2022-10-24T13:56:53;99278.44;;;8.09;53.86
72798;BME280;61084;55.816;37.036;2022-10-24T13:59:57;99282.81;;;8.08;53.38
72798;BME280;61084;55.816;37.036;2022-10-24T14:02:28;99289.88;;;8.06;53.76
72798;BME280;61084;55.816;37.036;2022-10-24T14:04:55;99287.38;;;8.03;54.14
72798;BME280;61084;55.816;37.036;2022-10-24T14:07:27;99289.31;;;8.00;53.95
72798;BME280;61084;55.816;37.036;2022-10-24T14:10:07;99292.13;;;7.95;54.45
72798;BME280;61084;55.816;37.036;2022-10-24T14:12:34;99301.91;;;7.90;54.54
72798;BME280;61084;55.816;37.036;2022-10-24T14:15:02;99297.84;;;7.83;54.40
72798;BME280;61084;55.816;37.036;2022-10-24T14:17:33;99304.22;;;7.78;54.65
72798;BME280;61084;55.816;37.036;2022-10-24T14:22:38;99318.78;;;7.63;54.74
72798;BME280;61084;55.816;37.036;2022-10-24T14:25:19;99323.47;;;7.55;54.70
72798;BME280;61084;55.816;37.036;2022-10-24T14:27:45;99327.19;;;7.49;54.51
72798;BME280;61084;55.816;37.036;2022-10-24T14:30:17;99327.47;;;7.43;54.35
72798;BME280;61084;55.816;37.036;2022-10-24T14:32:43;99330.28;;;7.37;54.61
72798;BME280;61084;55.816;37.036;2022-10-24T14:35:11;99334.91;;;7.31;54.59
72798;BME280;61084;55.816;37.036;2022-10-24T14:37:39;99337.06;;;7.21;54.78
72798;BME280;61084;55.816;37.036;2022-10-24T14:40:14;99341.75;;;7.13;54.82
72798;BME280;61084;55.816;37.036;2022-10-24T14:42:41;99338.59;;;7.05;55.25
72798;BME280;61084;55.816;37.036;2022-10-24T14:45:29;99343.38;;;6.94;55.30
72798;BME280;61084;55.816;37.036;2022-10-24T14:47:57;99352.41;;;6.85;56.01
72798;BME280;61084;55.816;37.036;2022-10-24T14:50:40;99354.41;;;6.79;56.16
72798;BME280;61084;55.816;37.036;2022-10-24T14:53:25;99352.97;;;6.72;55.91
72798;BME280;61084;55.816;37.036;2022-10-24T14:55:54;99355.94;;;6.61;55.74
72798;BME280;61084;55.816;37.036;2022-10-24T14:58:29;99356.34;;;6.51;56.17
72798;BME280;61084;55.816;37.036;2022-10-24T15:00:57;99365.31;;;6.44;56.52
72798;BME280;61084;55.816;37.036;2022-10-24T15:03:25;99354.38;;;6.34;56.29
72798;BME280;61084;55.816;37.036;2022-10-24T15:06:07;99359.81;;;6.28;56.31
72798;BME280;61084;55.816;37.036;2022-10-24T15:08:36;99364.56;;;6.17;56.19
72798;BME280;61084;55.816;37.036;2022-10-24T15:11:17;99381.38;;;6.08;56.86
72798;BME280;61084;55.816;37.036;2022-10-24T15:13:50;99380.03;;;5.97;56.12
72798;BME280;61084;55.816;37.036;2022-10-24T15:16:37;99383.97;;;5.84;56.49
72798;BME280;61084;55.816;37.036;2022-10-24T15:19:05;99381.59;;;5.76;56.57
72798;BME280;61084;55.816;37.036;2022-10-24T15:21:39;99385.25;;;5.71;57.20
72798;BME280;61084;55.816;37.036;2022-10-24T15:24:06;99378.53;;;5.65;56.99
72798;BME280;61084;55.816;37.036;2022-10-24T15:26:41;99390.81;;;5.60;57.21
72798;BME280;61084;55.816;37.036;2022-10-24T15:29:20;99387.63;;;5.52;57.21
72798;BME280;61084;55.816;37.036;2022-10-24T15:31:48;99393.06;;;5.45;57.22
72798;BME280;61084;55.816;37.036;2022-10-24T15:34:17;99394.22;;;5.36;57.15
72798;BME280;61084;55.816;37.036;2022-10-24T15:36:45;99400.31;;;5.35;57.44
72798;BME280;61084;55.816;37.036;2022-10-24T15:39:17;99399.72;;;5.27;57.43